createdAt,value
2019-05-13T00:00:53.841Z,45.12
2019-05-13T00:01:53.984Z,45.98
2019-05-13T00:02:54.435Z,45.36
2019-05-13T00:03:54.204Z,44.25
2019-05-13T00:04:53.343Z,43.94
2019-05-13T00:05:53.740Z,44.53
2019-05-13T00:06:55.123Z,44.55
2019-05-13T00:07:53.956Z,45.78
2019-05-13T00:08:54.335Z,46.27
2019-05-13T00:09:54.367Z,46.17
2019-05-13T00:10:54.131Z,45.27
2019-05-13T00:11:54.079Z,43.34
2019-05-13T00:12:53.984Z,44.10
2019-05-13T00:13:53.748Z,43.57
2019-05-13T00:14:54.019Z,44.23
2019-05-13T00:15:54.363Z,41.69
2019-05-13T00:16:53.662Z,43.38
2019-05-13T00:17:54.329Z,41.82
2019-05-13T00:18:53.575Z,41.63
2019-05-13T00:19:53.297Z,41.85
2019-05-13T00:20:54.176Z,41.24
2019-05-13T00:21:54.622Z,41.26
2019-05-13T00:22:53.827Z,40.63
2019-05-13T00:23:53.564Z,43.23
2019-05-13T00:24:54.277Z,42.21
2019-05-13T00:25:54.514Z,43.90
2019-05-13T00:26:53.232Z,41.17
2019-05-13T00:27:53.652Z,41.46
2019-05-13T00:28:53.527Z,42.77
2019-05-13T00:29:53.532Z,42.37
2019-05-13T00:30:54.236Z,42.99
2019-05-13T00:31:54.009Z,41.78
2019-05-13T00:32:54.562Z,43.92
2019-05-13T00:33:53.285Z,41.70
2019-05-13T00:34:53.453Z,40.86
2019-05-13T00:35:53.470Z,44.00
2019-05-13T00:37:07.332Z,43.53
2019-05-13T00:37:54.345Z,42.63
2019-05-13T00:38:53.442Z,43.95
2019-05-13T00:39:54.330Z,42.41
2019-05-13T00:40:54.534Z,44.44
2019-05-13T00:41:53.226Z,44.59
2019-05-13T00:42:54.535Z,42.74
2019-05-13T00:43:53.231Z,44.36
2019-05-13T00:44:53.203Z,44.46
2019-05-13T00:45:53.459Z,44.56
2019-05-13T00:46:53.783Z,44.56
2019-05-13T00:47:53.693Z,43.86
2019-05-13T00:48:54.085Z,44.71
2019-05-13T00:49:54.118Z,44.46
2019-05-13T00:50:54.404Z,45.29
2019-05-13T00:51:53.405Z,44.48
2019-05-13T00:52:53.621Z,43.42
2019-05-13T00:53:53.748Z,44.89
2019-05-13T00:54:53.501Z,45.07
2019-05-13T00:55:53.627Z,44.36
2019-05-13T00:56:54.721Z,45.04
2019-05-13T00:57:54.072Z,46.18
2019-05-13T00:58:54.079Z,44.25
2019-05-13T00:59:54.064Z,43.18
2019-05-13T01:00:54.591Z,43.67
2019-05-13T01:01:53.360Z,43.69
2019-05-13T01:02:53.385Z,44.60
2019-05-13T01:03:53.280Z,44.92
2019-05-13T01:04:53.544Z,42.57
2019-05-13T01:05:53.523Z,44.04
2019-05-13T01:06:53.776Z,44.60
2019-05-13T01:07:53.697Z,44.58
2019-05-13T01:08:53.581Z,43.62
2019-05-13T01:09:53.476Z,45.47
2019-05-13T01:10:53.687Z,46.32
2019-05-13T01:11:53.678Z,42.32
2019-05-13T01:12:53.939Z,43.65
2019-05-13T01:13:53.549Z,45.38
2019-05-13T01:14:53.450Z,42.36
2019-05-13T01:15:54.384Z,44.21
2019-05-13T01:16:54.391Z,44.03
2019-05-13T01:17:53.485Z,43.69
2019-05-13T01:18:53.792Z,47.43
2019-05-13T01:19:53.789Z,44.91
2019-05-13T01:20:53.832Z,44.77
2019-05-13T01:21:54.035Z,45.97
2019-05-13T01:22:54.115Z,45.62
2019-05-13T01:23:54.337Z,43.97
2019-05-13T01:24:54.145Z,44.15
2019-05-13T01:25:54.472Z,44.67
2019-05-13T01:26:54.140Z,43.62
2019-05-13T01:27:53.740Z,42.73
2019-05-13T01:28:53.560Z,45.83
2019-05-13T01:29:53.481Z,45.83
2019-05-13T01:30:53.947Z,45.18
2019-05-13T01:31:53.844Z,45.25
2019-05-13T01:32:54.023Z,43.85
2019-05-13T01:33:53.762Z,46.09
2019-05-13T01:34:53.793Z,43.99
2019-05-13T01:35:53.772Z,43.07
2019-05-13T01:36:53.609Z,43.94
2019-05-13T01:37:53.819Z,43.31
2019-05-13T01:38:54.085Z,45.24
2019-05-13T01:39:54.029Z,44.74
2019-05-13T01:40:53.989Z,44.61
2019-05-13T01:41:54.065Z,44.17
2019-05-13T01:42:54.179Z,45.53
2019-05-13T01:43:54.403Z,44.63
2019-05-13T01:44:53.869Z,45.59
2019-05-13T01:45:53.725Z,42.52
2019-05-13T01:46:53.766Z,43.94
2019-05-13T01:47:53.818Z,45.61
2019-05-13T01:48:54.361Z,43.96
2019-05-13T01:49:54.137Z,45.10
2019-05-13T01:50:53.370Z,45.10
2019-05-13T01:51:54.058Z,44.53
2019-05-13T01:52:53.295Z,45.13
2019-05-13T01:53:53.400Z,44.05
2019-05-13T01:54:54.256Z,44.78
2019-05-13T01:55:53.289Z,46.09
2019-05-13T01:56:53.544Z,44.40
2019-05-13T01:57:53.328Z,42.81
2019-05-13T01:58:53.967Z,43.63
2019-05-13T01:59:53.838Z,43.40
2019-05-13T02:00:54.921Z,43.38
2019-05-13T02:01:53.986Z,43.11
2019-05-13T02:02:54.330Z,43.71
2019-05-13T02:03:54.375Z,44.13
2019-05-13T02:04:53.246Z,49.14
2019-05-13T02:05:54.192Z,46.03
2019-05-13T02:06:54.216Z,44.03
2019-05-13T02:07:59.587Z,43.40
2019-05-13T02:08:54.558Z,42.34
2019-05-13T02:09:53.402Z,43.34
2019-05-13T02:10:54.428Z,43.78
2019-05-13T02:11:53.815Z,45.05
2019-05-13T02:12:53.560Z,43.80
2019-05-13T02:13:54.069Z,42.84
2019-05-13T02:14:53.416Z,45.00
2019-05-13T02:15:51.840Z,46.12
2019-05-13T02:16:53.578Z,44.39
2019-05-13T02:17:53.697Z,43.97
2019-05-13T02:18:53.703Z,44.76
2019-05-13T02:19:53.951Z,45.06
2019-05-13T02:20:54.846Z,44.11
2019-05-13T02:21:54.152Z,45.89
2019-05-13T02:22:53.621Z,43.65
2019-05-13T02:23:53.650Z,43.61
2019-05-13T02:24:53.499Z,44.79
2019-05-13T02:25:53.801Z,45.29
2019-05-13T02:26:54.162Z,42.11
2019-05-13T02:27:54.132Z,44.23
2019-05-13T02:28:53.983Z,44.11
2019-05-13T02:29:53.913Z,42.33
2019-05-13T02:30:51.693Z,42.98
2019-05-13T02:31:55.767Z,42.37
2019-05-13T02:32:53.137Z,44.13
2019-05-13T02:33:53.178Z,44.19
2019-05-13T02:34:53.253Z,42.60
2019-05-13T02:35:53.190Z,44.16
2019-05-13T02:36:52.729Z,43.25
2019-05-13T02:37:52.521Z,46.45
2019-05-13T02:38:53.205Z,43.63
2019-05-13T02:39:53.179Z,44.89
2019-05-13T02:40:52.795Z,43.54
2019-05-13T02:41:52.776Z,44.33
2019-05-13T02:42:52.278Z,44.96
2019-05-13T02:43:52.564Z,44.32
2019-05-13T02:44:52.921Z,44.46
2019-05-13T02:45:53.333Z,43.36
2019-05-13T02:46:52.462Z,43.25
2019-05-13T02:47:52.140Z,44.31
2019-05-13T02:48:52.781Z,44.40
2019-05-13T02:49:53.387Z,42.65
2019-05-13T02:50:53.114Z,42.84
2019-05-13T02:51:54.752Z,44.12
2019-05-13T02:52:53.121Z,46.08
2019-05-13T02:53:52.383Z,44.26
2019-05-13T02:54:52.777Z,44.71
2019-05-13T02:55:52.388Z,43.55
2019-05-13T02:56:52.651Z,43.16
2019-05-13T02:57:52.775Z,44.37
2019-05-13T02:58:52.633Z,41.57
2019-05-13T02:59:52.634Z,43.24
2019-05-13T03:00:53.267Z,44.05
2019-05-13T03:01:53.363Z,42.85
2019-05-13T03:02:52.457Z,41.53
2019-05-13T03:03:52.906Z,42.46
2019-05-13T03:04:52.303Z,41.35
2019-05-13T03:05:52.675Z,45.07
2019-05-13T03:06:52.107Z,41.94
2019-05-13T03:07:53.030Z,42.37
2019-05-13T03:08:54.434Z,42.08
2019-05-13T03:09:52.731Z,42.25
2019-05-13T03:10:53.158Z,45.97
2019-05-13T03:11:53.604Z,44.19
2019-05-13T03:12:53.447Z,42.35
2019-05-13T03:13:52.915Z,42.46
2019-05-13T03:14:53.251Z,43.16
2019-05-13T03:15:52.149Z,42.88
2019-05-13T03:16:52.544Z,42.64
2019-05-13T03:17:52.444Z,41.45
2019-05-13T03:18:52.326Z,42.61
2019-05-13T03:19:53.078Z,40.78
2019-05-13T03:20:53.023Z,41.47
2019-05-13T03:21:52.422Z,40.30
2019-05-13T03:22:52.533Z,42.98
2019-05-13T03:23:52.588Z,40.67
2019-05-13T03:24:52.372Z,40.16
2019-05-13T03:25:53.664Z,40.84
2019-05-13T03:26:53.247Z,41.01
2019-05-13T03:27:54.009Z,41.33
2019-05-13T03:28:52.404Z,42.14
2019-05-13T03:29:53.320Z,42.91
2019-05-13T03:30:56.475Z,49.79
2019-05-13T03:31:55.919Z,41.70
2019-05-13T03:32:59.868Z,42.10
2019-05-13T03:33:55.763Z,41.23
2019-05-13T03:34:55.858Z,41.02
2019-05-13T03:35:55.935Z,40.50
2019-05-13T03:36:57.050Z,40.57
2019-05-13T03:37:52.764Z,40.48
2019-05-13T03:39:05.224Z,38.34
2019-05-13T03:39:52.408Z,40.55
2019-05-13T03:40:52.617Z,42.38
2019-05-13T03:41:52.895Z,38.60
2019-05-13T03:42:53.609Z,38.90
2019-05-13T03:43:53.304Z,37.41
2019-05-13T03:44:52.441Z,40.12
2019-05-13T03:45:52.616Z,36.43
2019-05-13T03:46:52.936Z,36.55
2019-05-13T03:47:52.699Z,34.78
2019-05-13T03:48:52.951Z,36.55
2019-05-13T03:49:53.282Z,36.48
2019-05-13T03:50:53.321Z,36.38
2019-05-13T03:51:53.418Z,35.71
2019-05-13T03:52:52.606Z,35.65
2019-05-13T03:53:53.411Z,40.10
2019-05-13T03:54:52.115Z,36.08
2019-05-13T03:55:53.895Z,34.26
2019-05-13T03:56:53.065Z,34.06
2019-05-13T03:57:53.215Z,37.40
2019-05-13T03:58:53.659Z,36.34
2019-05-13T03:59:52.626Z,35.28
2019-05-13T04:00:51.848Z,36.99
2019-05-13T04:01:52.401Z,37.33
2019-05-13T04:02:52.155Z,37.74
2019-05-13T04:03:52.808Z,35.45
2019-05-13T04:04:53.017Z,36.84
2019-05-13T04:05:52.824Z,39.08
2019-05-13T04:06:53.006Z,36.86
2019-05-13T04:07:52.322Z,37.37
2019-05-13T04:08:53.717Z,39.43
2019-05-13T04:09:52.503Z,37.86
2019-05-13T04:10:52.496Z,37.52
2019-05-13T04:11:52.654Z,39.18
2019-05-13T04:12:52.717Z,35.69
2019-05-13T04:13:52.600Z,39.80
2019-05-13T04:14:52.798Z,34.38
2019-05-13T04:15:52.982Z,38.16
2019-05-13T04:16:53.200Z,36.92
2019-05-13T04:17:53.078Z,37.72
2019-05-13T04:18:53.650Z,37.65
2019-05-13T04:19:52.982Z,36.73
2019-05-13T04:20:53.039Z,37.48
2019-05-13T04:21:52.883Z,35.80
2019-05-13T04:22:52.950Z,33.60
2019-05-13T04:23:53.071Z,33.46
2019-05-13T04:24:53.006Z,35.77
2019-05-13T04:25:53.700Z,31.46
2019-05-13T04:26:53.325Z,37.29
2019-05-13T04:27:52.360Z,36.20
2019-05-13T04:28:52.585Z,39.69
2019-05-13T04:29:52.745Z,36.59
2019-05-13T04:30:52.626Z,38.52
2019-05-13T04:31:53.240Z,32.87
2019-05-13T04:32:53.297Z,41.07
2019-05-13T04:33:53.126Z,38.20
2019-05-13T04:34:52.906Z,38.81
2019-05-13T04:35:52.954Z,36.94
2019-05-13T04:36:52.021Z,36.23
2019-05-13T04:37:52.656Z,38.12
2019-05-13T04:38:52.891Z,34.67
2019-05-13T04:39:54.938Z,36.64
2019-05-13T04:40:52.844Z,36.91
2019-05-13T04:41:52.897Z,38.00
2019-05-13T04:42:53.614Z,37.20
2019-05-13T04:43:53.660Z,39.26
2019-05-13T04:44:52.951Z,37.28
2019-05-13T04:45:52.384Z,37.02
2019-05-13T04:46:52.287Z,34.44
2019-05-13T04:47:52.953Z,36.25
2019-05-13T04:48:53.095Z,36.88
2019-05-13T04:49:53.215Z,35.71
2019-05-13T04:50:53.169Z,39.71
2019-05-13T04:51:52.321Z,39.00
2019-05-13T04:52:52.523Z,39.91
2019-05-13T04:53:53.654Z,38.12
2019-05-13T04:54:52.782Z,39.70
2019-05-13T04:55:52.681Z,39.32
2019-05-13T04:56:52.556Z,41.80
2019-05-13T04:57:53.408Z,39.99
2019-05-13T04:58:52.837Z,41.90
2019-05-13T04:59:51.793Z,36.42
2019-05-13T05:01:01.646Z,39.54
2019-05-13T05:01:57.859Z,39.76
2019-05-13T05:02:55.057Z,40.62
2019-05-13T05:03:53.109Z,40.45
2019-05-13T05:04:52.500Z,37.77
2019-05-13T05:05:52.691Z,41.25
2019-05-13T05:06:52.555Z,38.16
2019-05-13T05:07:52.528Z,38.45
2019-05-13T05:08:52.309Z,41.13
2019-05-13T05:10:16.833Z,39.55
2019-05-13T05:10:53.855Z,41.40
2019-05-13T05:11:52.709Z,43.99
2019-05-13T05:12:51.875Z,41.21
2019-05-13T05:13:53.084Z,42.55
2019-05-13T05:14:52.270Z,43.58
2019-05-13T05:15:52.311Z,40.54
2019-05-13T05:16:52.123Z,39.18
2019-05-13T05:17:52.195Z,42.88
2019-05-13T05:18:52.477Z,40.36
2019-05-13T05:19:52.264Z,38.47
2019-05-13T05:20:51.796Z,45.76
2019-05-13T05:21:52.656Z,45.60
2019-05-13T05:22:51.279Z,40.36
2019-05-13T05:23:51.525Z,44.38
2019-05-13T05:24:51.898Z,41.76
2019-05-13T05:25:52.046Z,40.58
2019-05-13T05:26:52.064Z,44.98
2019-05-13T05:27:51.469Z,41.37
2019-05-13T05:28:51.763Z,43.61
2019-05-13T05:29:51.601Z,42.46
2019-05-13T05:30:51.773Z,41.08
2019-05-13T05:31:51.806Z,42.41
2019-05-13T05:32:51.653Z,40.70
2019-05-13T05:33:51.626Z,40.79
2019-05-13T05:34:51.793Z,43.16
2019-05-13T05:35:51.893Z,41.91
2019-05-13T05:36:51.898Z,36.52
2019-05-13T05:37:52.094Z,41.59
2019-05-13T05:38:51.376Z,40.15
2019-05-13T05:39:51.248Z,38.82
2019-05-13T05:40:51.117Z,40.44
2019-05-13T05:41:51.427Z,37.79
2019-05-13T05:42:51.678Z,35.02
2019-05-13T05:43:52.046Z,39.40
2019-05-13T05:44:51.683Z,38.24
2019-05-13T05:45:51.274Z,34.84
2019-05-13T05:46:51.512Z,36.78
2019-05-13T05:47:51.128Z,36.03
2019-05-13T05:48:50.714Z,39.02
2019-05-13T05:49:51.487Z,35.46
2019-05-13T05:50:51.567Z,38.12
2019-05-13T05:51:51.496Z,37.40
2019-05-13T05:52:51.350Z,32.58
2019-05-13T05:53:51.616Z,35.73
2019-05-13T05:54:51.603Z,35.18
2019-05-13T05:55:51.638Z,31.73
2019-05-13T05:56:51.809Z,35.38
2019-05-13T05:57:49.354Z,38.54
2019-05-13T05:58:49.340Z,37.82
2019-05-13T05:59:51.079Z,36.47
2019-05-13T06:00:51.951Z,33.61
2019-05-13T06:01:52.340Z,35.56
2019-05-13T06:02:49.305Z,31.97
2019-05-13T06:03:49.287Z,32.38
2019-05-13T06:04:52.003Z,31.90
2019-05-13T06:05:51.206Z,32.29
2019-05-13T06:06:52.066Z,36.01
2019-05-13T06:07:51.334Z,37.87
2019-05-13T06:08:51.511Z,34.05
2019-05-13T06:09:51.444Z,33.90
2019-05-13T06:10:52.920Z,36.26
2019-05-13T06:11:49.225Z,36.33
2019-05-13T06:12:49.180Z,35.83
2019-05-13T06:13:52.156Z,36.48
2019-05-13T06:14:52.408Z,35.10
2019-05-13T06:15:51.251Z,35.51
2019-05-13T06:16:51.715Z,34.95
2019-05-13T06:17:51.634Z,33.37
2019-05-13T06:18:49.114Z,30.32
2019-05-13T06:19:51.094Z,33.83
2019-05-13T06:20:51.229Z,33.98
2019-05-13T06:21:51.283Z,36.63
2019-05-13T06:22:51.420Z,35.73
2019-05-13T06:23:51.710Z,37.42
2019-05-13T06:24:49.077Z,27.94
2019-05-13T06:25:49.083Z,34.63
2019-05-13T06:26:49.031Z,32.58
2019-05-13T06:27:51.114Z,37.37
2019-05-13T06:28:49.008Z,34.64
2019-05-13T06:29:50.315Z,34.09
2019-05-13T06:30:51.286Z,37.62
2019-05-13T06:31:48.983Z,33.56
2019-05-13T06:32:48.970Z,36.14
2019-05-13T06:33:51.288Z,33.83
2019-05-13T06:34:48.937Z,31.46
2019-05-13T06:35:48.945Z,33.82
2019-05-13T06:36:48.915Z,37.09
2019-05-13T06:37:48.905Z,33.98
2019-05-13T06:38:51.170Z,33.06
2019-05-13T06:39:51.087Z,36.54
2019-05-13T06:41:00.474Z,35.04
2019-05-13T06:41:51.803Z,34.61
2019-05-13T06:42:48.851Z,33.98
2019-05-13T06:43:48.833Z,33.60
2019-05-13T06:44:51.211Z,33.78
2019-05-13T06:45:51.232Z,34.96
2019-05-13T06:46:51.482Z,35.29
2019-05-13T06:47:48.818Z,32.00
2019-05-13T06:48:48.809Z,34.14
2019-05-13T06:49:48.767Z,35.20
2019-05-13T06:50:48.755Z,35.21
2019-05-13T06:51:48.776Z,33.79
2019-05-13T06:52:51.209Z,36.04
2019-05-13T06:53:48.759Z,37.13
2019-05-13T06:54:48.725Z,38.98
2019-05-13T06:55:48.703Z,34.04
2019-05-13T06:56:48.692Z,37.62
2019-05-13T06:57:48.686Z,35.11
2019-05-13T06:58:48.697Z,36.74
2019-05-13T06:59:48.656Z,35.62
2019-05-13T07:00:48.654Z,33.73
2019-05-13T07:01:48.695Z,33.98
2019-05-13T07:02:48.638Z,39.58
2019-05-13T07:03:48.621Z,35.86
2019-05-13T07:04:48.603Z,35.81
2019-05-13T07:05:48.590Z,37.50
2019-05-13T07:06:48.577Z,38.52
2019-05-13T07:07:48.564Z,36.52
2019-05-13T07:08:48.572Z,31.31
2019-05-13T07:09:48.558Z,27.24
2019-05-13T07:10:48.561Z,35.46
2019-05-13T07:11:48.566Z,36.14
2019-05-13T07:12:48.511Z,34.21
2019-05-13T07:13:48.498Z,32.14
2019-05-13T07:14:48.493Z,36.98
2019-05-13T07:15:48.484Z,34.54
2019-05-13T07:16:48.462Z,32.05
2019-05-13T07:17:48.456Z,34.62
2019-05-13T07:18:48.468Z,35.73
2019-05-13T07:19:48.431Z,36.94
2019-05-13T07:20:48.434Z,38.26
2019-05-13T07:21:48.432Z,37.56
2019-05-13T07:22:48.405Z,35.00
2019-05-13T07:23:53.979Z,35.17
2019-05-13T07:24:51.780Z,34.57
2019-05-13T07:25:48.371Z,31.76
2019-05-13T07:26:48.367Z,34.34
2019-05-13T07:27:48.366Z,32.14
2019-05-13T07:28:48.331Z,32.20
2019-05-13T07:29:48.315Z,35.66
2019-05-13T07:30:48.308Z,36.96
2019-05-13T07:31:48.301Z,35.87
2019-05-13T07:32:48.306Z,32.23
2019-05-13T07:33:48.277Z,26.92
2019-05-13T07:34:48.280Z,36.19
2019-05-13T07:35:48.283Z,29.32
2019-05-13T07:36:48.242Z,35.10
2019-05-13T07:37:48.240Z,38.61
2019-05-13T07:38:48.230Z,34.83
2019-05-13T07:39:48.210Z,28.62
2019-05-13T07:40:48.195Z,32.34
2019-05-13T07:41:48.187Z,32.82
2019-05-13T07:42:48.171Z,35.67
2019-05-13T07:43:48.173Z,40.26
2019-05-13T07:44:48.153Z,39.53
2019-05-13T07:45:48.139Z,35.82
2019-05-13T07:46:48.157Z,36.43
2019-05-13T07:47:48.112Z,37.00
2019-05-13T07:48:48.110Z,36.80
2019-05-13T07:49:48.094Z,39.21
2019-05-13T07:50:59.028Z,37.17
2019-05-13T07:51:49.069Z,35.87
2019-05-13T07:52:48.063Z,33.92
2019-05-13T07:53:48.058Z,36.18
2019-05-13T07:54:48.049Z,38.91
2019-05-13T07:55:48.035Z,37.51
2019-05-13T07:56:48.022Z,40.30
2019-05-13T07:57:48.014Z,39.85
2019-05-13T07:58:47.993Z,39.91
2019-05-13T07:59:48.001Z,40.86
2019-05-13T08:00:47.974Z,40.51
2019-05-13T08:01:47.959Z,39.00
2019-05-13T08:02:47.953Z,41.72
2019-05-13T08:03:47.935Z,39.18
2019-05-13T08:04:49.485Z,36.52
2019-05-13T08:05:47.935Z,37.06
2019-05-13T08:06:47.903Z,42.71
2019-05-13T08:07:47.894Z,35.06
2019-05-13T08:08:47.881Z,39.38
2019-05-13T08:09:47.871Z,44.92
2019-05-13T08:10:47.867Z,41.18
2019-05-13T08:12:04.307Z,42.70
2019-05-13T08:12:48.839Z,40.26
2019-05-13T08:13:47.829Z,42.96
2019-05-13T08:14:47.814Z,44.95
2019-05-13T08:15:47.805Z,45.13
2019-05-13T08:16:47.807Z,44.73
2019-05-13T08:17:48.462Z,42.12
2019-05-13T08:18:47.771Z,43.96
2019-05-13T08:19:47.770Z,45.00
2019-05-13T08:20:47.756Z,43.27
2019-05-13T08:21:47.737Z,40.53
2019-05-13T08:22:47.785Z,40.05
2019-05-13T08:23:47.738Z,38.46
2019-05-13T08:24:50.950Z,46.77
2019-05-13T08:25:48.690Z,48.03
2019-05-13T08:26:50.221Z,45.25
2019-05-13T08:27:48.673Z,44.43
2019-05-13T08:29:00.387Z,43.09
2019-05-13T08:29:48.658Z,43.81
2019-05-13T08:30:47.642Z,46.39
2019-05-13T08:31:48.466Z,46.20
2019-05-13T08:32:47.621Z,48.75
2019-05-13T08:33:47.620Z,47.37
2019-05-13T08:34:52.528Z,46.01
2019-05-13T08:35:53.899Z,41.76
2019-05-13T08:36:48.597Z,47.98
2019-05-13T08:37:47.575Z,49.60
2019-05-13T08:38:47.631Z,46.70
2019-05-13T08:39:47.564Z,42.06
2019-05-13T08:40:47.525Z,42.75
2019-05-13T08:41:47.516Z,47.63
2019-05-13T08:42:47.509Z,47.72
2019-05-13T08:43:47.498Z,47.63
2019-05-13T08:44:47.502Z,51.95
2019-05-13T08:45:47.493Z,51.60
2019-05-13T08:46:47.509Z,52.57
2019-05-13T08:47:47.444Z,44.72
2019-05-13T08:48:47.435Z,46.52
2019-05-13T08:49:47.420Z,55.56
2019-05-13T08:50:47.423Z,54.88
2019-05-13T08:51:47.399Z,48.03
2019-05-13T08:52:47.388Z,49.91
2019-05-13T08:53:47.389Z,49.32
2019-05-13T08:54:47.364Z,50.01
2019-05-13T08:55:47.395Z,54.92
2019-05-13T08:56:47.363Z,54.00
2019-05-13T08:57:47.332Z,54.14
2019-05-13T08:58:47.322Z,54.47
2019-05-13T08:59:47.332Z,50.44
2019-05-13T09:00:47.298Z,54.01
2019-05-13T09:01:47.293Z,51.27
2019-05-13T09:02:47.270Z,49.04
2019-05-13T09:03:47.265Z,52.66
2019-05-13T09:04:47.248Z,46.15
2019-05-13T09:05:47.240Z,48.89
2019-05-13T09:06:47.239Z,51.63
2019-05-13T09:07:47.235Z,45.61
2019-05-13T09:08:47.221Z,46.77
2019-05-13T09:09:47.195Z,46.97
2019-05-13T09:10:47.195Z,47.29
2019-05-13T09:11:47.171Z,53.22
2019-05-13T09:12:47.163Z,39.73
2019-05-13T09:13:47.147Z,40.95
2019-05-13T09:14:47.195Z,42.48
2019-05-13T09:15:47.125Z,46.76
2019-05-13T09:16:47.117Z,51.16
2019-05-13T09:17:47.102Z,47.98
2019-05-13T09:18:47.089Z,49.43
2019-05-13T09:19:47.095Z,47.87
2019-05-13T09:20:47.067Z,47.99
2019-05-13T09:21:47.056Z,49.58
2019-05-13T09:22:47.047Z,51.17
2019-05-13T09:23:47.065Z,46.35
2019-05-13T09:24:47.036Z,46.19
2019-05-13T09:25:47.019Z,49.00
2019-05-13T09:26:46.997Z,53.98
2019-05-13T09:27:46.990Z,48.71
2019-05-13T09:28:46.979Z,58.58
2019-05-13T09:29:46.980Z,48.98
2019-05-13T09:30:46.956Z,54.80
2019-05-13T09:31:46.940Z,55.47
2019-05-13T09:32:46.949Z,57.09
2019-05-13T09:33:46.919Z,50.55
2019-05-13T09:34:46.911Z,55.94
2019-05-13T09:35:50.034Z,49.43
2019-05-13T09:36:46.881Z,49.43
2019-05-13T09:37:46.878Z,49.07
2019-05-13T09:38:46.881Z,50.73
2019-05-13T09:39:46.859Z,45.25
2019-05-13T09:40:46.869Z,47.82
2019-05-13T09:41:46.828Z,48.22
2019-05-13T09:42:51.620Z,53.61
2019-05-13T09:43:47.809Z,50.36
2019-05-13T09:44:46.795Z,51.79
2019-05-13T09:45:46.795Z,50.02
2019-05-13T09:46:46.796Z,42.93
2019-05-13T09:47:47.026Z,41.42
2019-05-13T09:48:46.751Z,46.45
2019-05-13T09:49:46.770Z,45.40
2019-05-13T09:50:46.730Z,45.69
2019-05-13T09:51:46.720Z,37.81
2019-05-13T09:52:46.704Z,41.33
2019-05-13T09:53:46.695Z,43.04
2019-05-13T09:54:46.686Z,47.32
2019-05-13T09:55:46.699Z,44.05
2019-05-13T09:56:46.670Z,44.11
2019-05-13T09:57:46.654Z,52.44
2019-05-13T09:58:46.638Z,43.28
2019-05-13T09:59:46.644Z,39.47
2019-05-13T10:00:46.622Z,49.34
2019-05-13T10:01:46.606Z,42.73
2019-05-13T10:02:46.592Z,45.29
2019-05-13T10:03:54.922Z,48.86
2019-05-13T10:04:47.570Z,45.32
2019-05-13T10:05:46.560Z,45.25
2019-05-13T10:06:46.572Z,41.22
2019-05-13T10:07:46.538Z,47.76
2019-05-13T10:08:46.552Z,48.80
2019-05-13T10:09:48.415Z,47.22
2019-05-13T10:10:46.522Z,44.81
2019-05-13T10:11:46.518Z,47.05
2019-05-13T10:13:07.055Z,46.77
2019-05-13T10:13:47.470Z,48.42
2019-05-13T10:20:36.227Z,53.37
2019-05-13T10:21:36.190Z,47.24
2019-05-13T10:23:07.984Z,51.48
2019-05-13T10:24:07.958Z,43.66
2019-05-13T10:25:39.754Z,52.64
2019-05-13T10:26:42.654Z,43.39
2019-05-13T10:28:13.303Z,52.46
2019-05-13T10:29:12.513Z,48.95
2019-05-13T10:30:12.505Z,46.31
2019-05-13T10:31:12.482Z,46.18
2019-05-13T10:32:12.470Z,48.30
2019-05-13T10:33:12.685Z,47.01
2019-05-13T10:34:14.101Z,45.76
2019-05-13T10:35:12.431Z,45.20
2019-05-13T10:36:12.495Z,47.02
2019-05-13T10:37:12.409Z,47.39
2019-05-13T10:38:13.413Z,45.02
2019-05-13T10:39:12.410Z,45.82
2019-05-13T10:40:12.382Z,44.42
2019-05-13T10:41:12.406Z,45.08
2019-05-13T10:42:12.420Z,46.14
2019-05-13T10:43:30.074Z,42.22
2019-05-13T10:44:13.332Z,46.34
2019-05-13T10:45:13.060Z,49.58
2019-05-13T10:46:12.855Z,46.71
2019-05-13T10:47:12.329Z,48.62
2019-05-13T10:48:13.451Z,47.86
2019-05-13T10:49:12.531Z,47.31
2019-05-13T10:50:12.269Z,46.39
2019-05-13T10:52:13.242Z,43.58
2019-05-13T10:53:12.457Z,44.03
2019-05-13T10:54:12.218Z,44.04
2019-05-13T10:55:13.030Z,44.16
2019-05-13T10:56:12.199Z,43.49
2019-05-13T10:57:13.755Z,48.21
2019-05-13T10:58:12.439Z,45.27
2019-05-13T10:59:12.771Z,46.73
2019-05-13T11:00:12.447Z,46.33
2019-05-13T11:01:12.160Z,41.82
2019-05-13T11:02:13.395Z,47.34
2019-05-13T11:03:12.299Z,48.12
2019-05-13T11:04:13.513Z,52.64
2019-05-13T11:05:12.494Z,49.65
2019-05-13T11:06:12.091Z,49.38
2019-05-13T11:07:12.275Z,49.05
2019-05-13T11:08:12.065Z,45.20
2019-05-13T11:09:12.956Z,49.40
2019-05-13T11:10:13.338Z,49.39
2019-05-13T11:11:12.992Z,52.22
2019-05-13T11:12:12.421Z,48.91
2019-05-13T11:13:12.014Z,52.00
2019-05-13T11:14:15.557Z,46.03
2019-05-13T11:15:11.988Z,51.11
2019-05-13T11:16:12.324Z,48.93
2019-05-13T11:17:12.960Z,41.00
2019-05-13T11:18:19.079Z,46.10
2019-05-13T11:19:12.943Z,47.75
2019-05-13T11:20:12.479Z,48.48
2019-05-13T11:21:12.998Z,47.54
2019-05-13T11:22:12.440Z,50.16
2019-05-13T11:23:12.360Z,44.91
2019-05-13T11:24:12.781Z,39.92
2019-05-13T11:25:12.462Z,40.14
2019-05-13T11:26:12.910Z,43.97
2019-05-13T11:27:12.092Z,44.34
2019-05-13T11:28:12.355Z,41.10
2019-05-13T11:29:12.229Z,39.85
2019-05-13T11:30:11.823Z,46.39
2019-05-13T11:31:11.814Z,45.43
2019-05-13T11:32:13.298Z,42.77
2019-05-13T11:33:11.800Z,43.99
2019-05-13T11:34:11.776Z,49.57
2019-05-13T11:35:12.810Z,41.40
2019-05-13T11:36:12.896Z,45.43
2019-05-13T11:37:12.408Z,49.66
2019-05-13T11:38:12.276Z,46.72
2019-05-13T11:39:13.059Z,47.24
2019-05-13T11:40:12.132Z,49.46
2019-05-13T11:41:11.877Z,42.82
2019-05-13T11:42:13.650Z,46.97
2019-05-13T11:43:12.276Z,46.07
2019-05-13T11:44:16.044Z,46.19
2019-05-13T11:45:11.934Z,44.46
2019-05-13T11:46:11.641Z,46.91
2019-05-13T11:47:12.711Z,44.63
2019-05-13T11:48:13.216Z,46.71
2019-05-13T11:49:11.921Z,47.89
2019-05-13T11:50:12.108Z,43.38
2019-05-13T11:51:13.057Z,42.21
2019-05-13T11:52:12.103Z,43.33
2019-05-13T11:53:31.409Z,47.33
2019-05-13T11:54:13.939Z,43.78
2019-05-13T11:55:13.021Z,42.57
2019-05-13T11:56:12.179Z,46.97
2019-05-13T11:57:12.416Z,43.49
2019-05-13T11:58:13.883Z,43.92
2019-05-13T11:59:14.130Z,43.31
2019-05-13T12:00:13.475Z,48.23
2019-05-13T12:01:11.502Z,44.03
2019-05-13T12:02:13.660Z,41.17
2019-05-13T12:03:11.460Z,43.20
2019-05-13T12:04:11.450Z,42.88
2019-05-13T12:05:11.437Z,42.82
2019-05-13T12:06:11.435Z,39.77
2019-05-13T12:07:13.247Z,41.87
2019-05-13T12:08:12.680Z,42.88
2019-05-13T12:09:12.969Z,49.48
2019-05-13T12:10:12.446Z,48.13
2019-05-13T12:11:13.964Z,51.00
2019-05-13T12:12:13.071Z,53.92
2019-05-13T12:13:12.538Z,49.65
2019-05-13T12:14:37.259Z,45.56
2019-05-13T12:15:38.869Z,44.37
2019-05-13T12:16:13.033Z,46.10
2019-05-13T12:17:14.098Z,43.21
2019-05-13T12:18:12.613Z,42.32
2019-05-13T12:19:11.995Z,43.06
2019-05-13T12:20:12.193Z,46.88
2019-05-13T12:21:12.373Z,46.14
2019-05-13T12:22:13.118Z,46.92
2019-05-13T12:23:12.988Z,44.55
2019-05-13T12:24:11.493Z,46.61
2019-05-13T12:25:13.737Z,45.91
2019-05-13T12:26:12.883Z,45.42
2019-05-13T12:27:11.584Z,47.01
2019-05-13T12:28:11.553Z,45.38
2019-05-13T12:29:17.875Z,47.13
2019-05-13T12:30:12.652Z,45.89
2019-05-13T12:31:12.150Z,44.06
2019-05-13T12:32:13.544Z,43.23
2019-05-13T12:33:13.507Z,42.68
2019-05-13T12:34:13.076Z,45.24
2019-05-13T12:35:13.339Z,44.11
2019-05-13T12:36:17.755Z,40.71
2019-05-13T12:37:12.380Z,44.82
2019-05-13T12:38:13.192Z,42.61
2019-05-13T12:39:13.960Z,45.95
2019-05-13T12:40:11.047Z,43.65
2019-05-13T12:41:12.894Z,40.81
2019-05-13T12:42:12.794Z,42.33
2019-05-13T12:43:13.216Z,46.70
2019-05-13T12:44:12.942Z,42.52
2019-05-13T12:45:14.177Z,40.28
2019-05-13T12:46:12.520Z,41.60
2019-05-13T12:47:12.037Z,43.48
2019-05-13T12:48:13.916Z,41.53
2019-05-13T12:49:14.354Z,41.67
2019-05-13T12:50:13.544Z,42.73
2019-05-13T12:51:13.224Z,44.47
2019-05-13T12:52:13.127Z,40.91
2019-05-13T12:53:12.740Z,41.96
2019-05-13T12:54:13.519Z,36.73
2019-05-13T12:55:14.047Z,41.29
2019-05-13T12:56:12.578Z,38.25
2019-05-13T12:57:13.142Z,40.73
2019-05-13T12:58:12.065Z,43.40
2019-05-13T12:59:13.261Z,33.21
2019-05-13T13:00:13.232Z,41.31
2019-05-13T13:01:12.808Z,43.72